Time;durP1;ratioP1;P1;durP2;ratioP2;P2;SDS_P1;SDS_P2;PMS_P1;PMS_P2;Temp;Humidity;BMP_temperature;BMP_pressure;BME280_temperature;BME280_humidity;BME280_pressure;Samples;Min_cycle;Max_cycle;Signal;HPM_P1;HPM_P2
2022/10/04 00:00:39;;;;;;;3.35;1.88;;;;;;;12.50;64.86;100126.72;5089303;28;20032;-28
2022/10/04 00:03:09;;;;;;;5.50;1.98;;;;;;;12.56;64.42;100131.94;5089896;28;20044;-27
2022/10/04 00:05:36;;;;;;;4.25;2.30;;;;;;;12.59;64.92;100139.53;5089429;28;20036;-27
2022/10/04 00:08:25;;;;;;;3.63;1.93;;;;;;;12.63;64.46;100137.22;5089732;28;20036;-31
2022/10/04 00:11:02;;;;;;;4.72;2.10;;;;;;;12.61;64.39;100125.94;5087884;28;20426;-26
2022/10/04 00:13:28;;;;;;;5.53;2.05;;;;;;;12.46;64.93;100127.19;5071023;28;20024;-27
2022/10/04 00:15:54;;;;;;;3.17;2.03;;;;;;;12.61;64.67;100144.66;5088932;28;20040;-28
2022/10/04 00:18:40;;;;;;;6.63;2.58;;;;;;;12.75;64.08;100137.19;5089343;28;20031;-27
2022/10/04 00:21:07;;;;;;;5.95;2.20;;;;;;;12.55;64.28;100114.28;5089167;28;20024;-33
2022/10/04 00:23:36;;;;;;;3.88;2.10;;;;;;;12.48;65.08;100123.44;5089053;28;20107;-28
2022/10/04 00:26:03;;;;;;;6.57;2.60;;;;;;;12.48;64.81;100126.94;5089445;28;20071;-28
2022/10/04 00:28:34;;;;;;;4.40;2.23;;;;;;;12.48;65.03;100134.16;5088635;28;20028;-28
2022/10/04 00:31:23;;;;;;;5.05;2.10;;;;;;;12.37;64.87;100127.72;5089030;28;20262;-31
2022/10/04 00:33:53;;;;;;;6.50;2.10;;;;;;;12.10;65.04;100105.94;5069895;28;20491;-27
2022/10/04 00:36:24;;;;;;;4.35;2.08;;;;;;;12.13;65.82;100132.19;5089198;28;20056;-29
2022/10/04 00:39:02;;;;;;;3.38;1.98;;;;;;;12.29;65.14;100128.88;5088797;28;20065;-28
2022/10/04 00:41:35;;;;;;;3.95;1.98;;;;;;;12.25;64.57;100119.69;5088817;28;20031;-31
2022/10/04 00:44:04;;;;;;;3.53;2.00;;;;;;;12.24;65.22;100126.88;5088950;28;20029;-32
2022/10/04 00:46:30;;;;;;;;;;;;;;;12.27;64.81;100123.75;5071065;28;20035;-28
2022/10/04 00:49:00;;;;;;;2.72;1.70;;;;;;;12.21;65.02;100119.31;5088674;28;20018;-26
2022/10/04 00:51:28;;;;;;;4.13;1.60;;;;;;;12.26;64.78;100118.66;5070620;28;20074;-30
2022/10/04 00:54:05;;;;;;;;;;;;;;;12.31;64.75;100110.75;5087380;28;20040;-29
2022/10/04 00:56:44;;;;;;;5.70;2.15;;;;;;;12.18;65.25;100113.63;5088386;28;19981;-28
2022/10/04 00:59:20;;;;;;;2.95;1.88;;;;;;;12.27;64.50;100112.25;5087279;28;20151;-27
2022/10/04 01:01:51;;;;;;;4.65;2.00;;;;;;;12.31;64.13;100100.03;5088457;28;20024;-26
2022/10/04 01:04:30;;;;;;;3.85;1.90;;;;;;;12.39;63.83;100110.41;5088508;28;20060;-26
2022/10/04 01:07:00;;;;;;;4.40;1.80;;;;;;;12.46;63.45;100111.13;5088531;28;20033;-29
2022/10/04 01:09:26;;;;;;;2.70;1.83;;;;;;;12.45;63.50;100117.50;5070233;28;20407;-28
2022/10/04 01:12:02;;;;;;;3.35;2.25;;;;;;;12.37;64.11;100112.50;5070027;28;20491;-31
2022/10/04 01:15:12;;;;;;;4.85;1.90;;;;;;;12.41;63.87;100112.88;5088109;28;20031;-28
2022/10/04 01:17:38;;;;;;;4.72;2.00;;;;;;;12.30;64.49;100122.50;5087853;28;20035;-27
2022/10/04 01:20:27;;;;;;;3.63;2.00;;;;;;;12.36;64.22;100123.41;5088411;28;20031;-30
2022/10/04 01:22:54;;;;;;;5.07;2.00;;;;;;;12.27;63.74;100102.34;5088114;28;20134;-27
2022/10/04 01:25:41;;;;;;;3.90;1.90;;;;;;;12.35;64.33;100135.97;5087854;28;20487;-27
2022/10/04 01:28:07;;;;;;;2.60;1.90;;;;;;;12.16;64.83;100111.16;5087745;28;20028;-27
2022/10/04 01:30:32;;;;;;;3.63;2.22;;;;;;;12.15;65.20;100143.47;5087803;28;20664;-28
2022/10/04 01:32:58;;;;;;;2.95;1.90;;;;;;;11.89;67.16;100145.47;5088041;28;20075;-30
2022/10/04 01:35:24;;;;;;;3.53;2.03;;;;;;;11.94;66.53;100140.25;5087498;28;20443;-28
2022/10/04 01:37:49;;;;;;;6.40;2.28;;;;;;;11.75;67.73;100130.59;5087106;28;20048;-27
2022/10/04 01:40:15;;;;;;;6.15;2.30;;;;;;;11.87;67.05;100147.53;5086786;28;20024;-32
2022/10/04 01:42:49;;;;;;;3.58;2.10;;;;;;;11.81;67.12;100132.38;5087745;28;20474;-28
2022/10/04 01:45:26;;;;;;;5.00;2.30;;;;;;;11.54;68.30;100146.03;5086216;28;20473;-27
2022/10/04 01:47:56;;;;;;;4.88;2.60;;;;;;;11.32;68.88;100128.84;5087206;28;20031;-26
2022/10/04 01:50:44;;;;;;;5.40;2.17;;;;;;;11.59;67.64;100148.88;5087416;28;20097;-27
2022/10/04 01:53:18;;;;;;;5.90;2.65;;;;;;;11.59;68.09;100132.03;5087351;28;20693;-27
2022/10/04 01:55:49;;;;;;;5.47;2.50;;;;;;;11.55;67.86;100122.84;5087399;28;20031;-28
2022/10/04 01:58:24;;;;;;;5.07;2.50;;;;;;;11.64;67.70;100146.34;5068680;28;20024;-29
2022/10/04 02:01:14;;;;;;;5.40;2.65;;;;;;;11.39;69.27;100140.28;5087201;28;20078;-29
2022/10/04 02:03:46;;;;;;;7.75;2.20;;;;;;;11.33;69.41;100141.16;5087120;28;20042;-29
2022/10/04 02:06:14;;;;;;;3.55;2.33;;;;;;;11.34;69.32;100142.78;5068868;28;20031;-26
2022/10/04 02:08:48;;;;;;;4.60;2.00;;;;;;;11.51;68.52;100151.03;5087255;28;20063;-32
2022/10/04 02:11:21;;;;;;;3.50;2.60;;;;;;;11.30;69.11;100128.25;5069005;28;20686;-28
2022/10/04 02:13:50;;;;;;;5.43;2.85;;;;;;;11.34;69.06;100140.13;5068370;28;20055;-31
2022/10/04 02:16:16;;;;;;;6.38;2.55;;;;;;;11.45;68.59;100142.06;5068684;28;20040;-28
2022/10/04 02:18:44;;;;;;;5.80;2.38;;;;;;;11.36;68.96;100135.38;5068651;28;20028;-27
2022/10/04 02:21:11;;;;;;;5.07;2.47;;;;;;;11.51;68.24;100130.47;5086756;28;20039;-30
2022/10/04 02:23:39;;;;;;;3.97;2.50;;;;;;;11.36;68.42;100133.53;5068333;28;20027;-28
2022/10/04 02:26:06;;;;;;;6.33;2.60;;;;;;;11.31;69.46;100153.91;5086810;28;20286;-30
2022/10/04 02:28:33;;;;;;;6.63;2.92;;;;;;;11.27;70.23;100154.34;5086698;28;20032;-28
2022/10/04 02:33:47;;;;;;;4.78;2.30;;;;;;;11.26;70.20;100154.59;5071281;28;20428;-27
2022/10/04 02:36:13;;;;;;;3.58;2.30;;;;;;;11.14;70.83;100161.69;5086543;28;20079;-28
2022/10/04 02:38:45;;;;;;;4.60;2.40;;;;;;;11.11;71.18;100162.13;5086437;28;20056;-27
2022/10/04 02:41:30;;;;;;;3.83;2.75;;;;;;;11.09;71.60;100162.34;5085445;28;20066;-28
2022/10/04 02:44:10;;;;;;;4.97;2.70;;;;;;;11.23;70.59;100171.84;5086528;28;20032;-29
2022/10/04 02:46:49;;;;;;;3.58;2.50;;;;;;;11.06;70.89;100154.78;5085022;28;20039;-27
2022/10/04 02:49:43;;;;;;;5.70;2.40;;;;;;;11.16;70.77;100170.31;5086631;28;20032;-30
2022/10/04 02:52:09;;;;;;;5.35;2.70;;;;;;;10.98;72.13;100169.22;5068748;28;20060;-26
2022/10/04 02:54:55;;;;;;;5.13;2.65;;;;;;;11.14;71.88;100167.03;5090709;28;20682;-27
2022/10/04 02:57:22;;;;;;;3.78;2.28;;;;;;;11.10;71.41;100157.84;5090844;28;20028;-29
2022/10/04 02:59:49;;;;;;;4.55;2.30;;;;;;;10.93;71.19;100150.38;5090546;28;20038;-30
2022/10/04 03:02:26;;;;;;;5.05;2.65;;;;;;;10.92;72.11;100182.63;5072209;28;20469;-28
2022/10/04 03:04:55;;;;;;;4.63;2.72;;;;;;;10.70;72.17;100161.63;5090665;28;20042;-29
2022/10/04 03:07:22;;;;;;;4.93;2.70;;;;;;;10.94;71.74;100184.03;5090551;28;20028;-28
2022/10/04 03:09:49;;;;;;;4.88;2.38;;;;;;;10.67;72.98;100167.44;5090270;28;20020;-27
2022/10/04 03:12:15;;;;;;;5.10;2.90;;;;;;;10.81;72.64;100171.63;5090636;28;20089;-28
2022/10/04 03:14:41;;;;;;;6.40;3.00;;;;;;;10.94;71.50;100188.56;5090705;28;20040;-33
2022/10/04 03:17:07;;;;;;;5.40;3.33;;;;;;;10.64;72.69;100165.19;5090357;28;20036;-27
2022/10/04 03:19:34;;;;;;;6.45;2.58;;;;;;;10.86;71.89;100177.09;5090141;28;20028;-28
2022/10/04 03:22:08;;;;;;;6.85;3.47;;;;;;;10.90;72.09;100192.69;5090117;28;20028;-28
2022/10/04 03:24:41;;;;;;;6.40;3.42;;;;;;;10.77;71.53;100173.09;5090366;28;20039;-27
2022/10/04 03:27:12;;;;;;;9.05;4.05;;;;;;;10.96;71.30;100191.81;5071811;28;20028;-27
2022/10/04 03:29:43;;;;;;;7.63;3.65;;;;;;;10.64;72.18;100199.84;5090005;28;20020;-26
2022/10/04 03:32:12;;;;;;;7.47;4.07;;;;;;;10.73;72.14;100171.88;5089925;28;20039;-28
2022/10/04 03:34:42;;;;;;;7.60;3.47;;;;;;;10.98;71.70;100201.22;5090206;28;20717;-27
2022/10/04 03:37:15;;;;;;;8.23;3.58;;;;;;;10.71;72.35;100179.28;5089780;28;20507;-28
2022/10/04 03:39:51;;;;;;;5.32;3.42;;;;;;;10.79;71.74;100173.69;5071332;28;20418;-30
2022/10/04 03:42:25;;;;;;;6.32;3.22;;;;;;;10.79;71.92;100213.69;5089672;28;20483;-30
2022/10/04 03:44:55;;;;;;;8.27;3.60;;;;;;;10.65;73.53;100222.84;5089877;28;20028;-28
2022/10/04 03:47:25;;;;;;;4.93;3.25;;;;;;;10.81;72.90;100224.16;5070918;28;20396;-30
2022/10/04 03:49:53;;;;;;;5.60;2.92;;;;;;;10.78;72.84;100230.72;5089944;28;20514;-29
2022/10/04 03:52:25;;;;;;;5.50;3.13;;;;;;;10.73;72.82;100224.44;5089778;28;20028;-26
2022/10/04 03:54:55;;;;;;;7.38;3.33;;;;;;;10.70;72.43;100220.31;5089816;28;20024;-27
2022/10/04 03:57:22;;;;;;;5.13;3.10;;;;;;;10.78;72.51;100201.38;5089875;28;20082;-27
2022/10/04 03:59:48;;;;;;;5.63;3.35;;;;;;;10.79;72.51;100208.38;5089699;28;20063;-29
2022/10/04 04:02:38;;;;;;;7.32;3.75;;;;;;;10.90;72.36;100230.03;5088657;28;20036;-29
2022/10/04 04:05:18;;;;;;;5.95;3.60;;;;;;;10.91;72.63;100221.00;5089444;28;20548;-28
2022/10/04 04:07:53;;;;;;;5.28;3.22;;;;;;;10.73;72.81;100241.25;5070607;28;20028;-27
2022/10/04 04:10:29;;;;;;;6.45;3.42;;;;;;;10.61;73.15;100242.97;5089001;28;20032;-27
2022/10/04 04:13:01;;;;;;;6.82;3.30;;;;;;;10.52;73.31;100249.56;5089327;28;20145;-28
2022/10/04 04:15:32;;;;;;;5.10;3.28;;;;;;;10.44;73.37;100237.28;5089329;28;20020;-27
2022/10/04 04:18:05;;;;;;;5.45;3.17;;;;;;;10.47;73.21;100230.75;5087632;28;20046;-27
2022/10/04 04:20:37;;;;;;;6.53;3.67;;;;;;;10.63;72.98;100246.22;5070803;28;20032;-28
2022/10/04 04:23:10;;;;;;;5.20;3.40;;;;;;;10.56;73.04;100234.78;5070379;28;20831;-28
2022/10/04 04:25:40;;;;;;;5.00;3.65;;;;;;;10.73;72.59;100249.25;5087329;28;20028;-27
2022/10/04 04:28:39;;;;;;;6.63;3.83;;;;;;;10.89;72.28;100247.91;5088851;28;20032;-28
2022/10/04 04:31:18;;;;;;;5.63;3.47;;;;;;;11.03;71.97;100253.94;5070156;28;20118;-28
2022/10/04 04:33:47;;;;;;;;;;;;;;;10.93;72.54;100259.78;5088951;28;20032;-29
2022/10/04 04:36:14;;;;;;;7.45;3.60;;;;;;;10.95;72.71;100232.88;5088561;28;19934;-26
2022/10/04 04:41:30;;;;;;;4.70;3.70;;;;;;;11.37;71.95;100257.16;5046323;28;20055;-27
2022/10/04 04:43:56;;;;;;;5.57;3.63;;;;;;;11.33;72.44;100269.31;5070539;28;20028;-30
2022/10/04 04:46:21;;;;;;;5.80;3.85;;;;;;;11.30;72.83;100261.72;5088930;28;20024;-27
2022/10/04 04:48:52;;;;;;;8.10;4.03;;;;;;;11.33;73.39;100246.09;5088594;28;20032;-28
2022/10/04 04:51:20;;;;;;;9.65;4.38;;;;;;;11.66;72.84;100274.34;5088389;28;20783;-28
2022/10/04 04:53:47;;;;;;;7.47;3.70;;;;;;;11.84;72.78;100274.38;5086633;28;20021;-26
2022/10/04 04:56:18;;;;;;;8.15;4.53;;;;;;;11.91;73.12;100276.19;5087991;28;20074;-27
2022/10/04 04:58:46;;;;;;;5.68;3.67;;;;;;;12.03;72.39;100266.38;5088545;28;20043;-31
2022/10/04 05:01:20;;;;;;;;;;;;;;;12.10;71.63;100269.81;5088896;28;20135;-28
2022/10/04 05:04:02;;;;;;;4.97;3.22;;;;;;;12.12;70.94;100249.00;5088117;28;20290;-28
2022/10/04 05:06:29;;;;;;;7.72;3.40;;;;;;;12.15;70.77;100275.28;5088099;28;20032;-28
2022/10/04 05:08:55;;;;;;;5.10;3.10;;;;;;;12.10;70.29;100260.97;5088379;28;20028;-28
2022/10/04 05:11:25;;;;;;;7.07;3.13;;;;;;;12.27;70.29;100280.69;5088200;28;20093;-28
2022/10/04 05:14:00;;;;;;;6.82;3.55;;;;;;;12.51;69.26;100278.16;5087219;28;20119;-27
2022/10/04 05:16:41;;;;;;;4.43;3.00;;;;;;;12.53;68.02;100260.81;5088062;28;20112;-27
2022/10/04 05:19:34;;;;;;;5.13;3.28;;;;;;;12.50;67.95;100261.25;5086529;28;20024;-29
2022/10/04 05:22:21;;;;;;;6.75;3.10;;;;;;;12.81;67.50;100278.13;5069526;28;20114;-31
2022/10/04 05:24:52;;;;;;;4.93;2.90;;;;;;;12.63;66.68;100254.94;5088016;28;20607;-27
2022/10/04 05:27:39;;;;;;;8.32;3.20;;;;;;;13.04;66.60;100293.44;5087899;28;20111;-28
2022/10/04 05:30:12;;;;;;;6.38;3.30;;;;;;;12.67;66.50;100266.81;5086103;28;20444;-30
2022/10/04 05:33:00;;;;;;;5.40;3.10;;;;;;;13.07;65.86;100288.44;5087806;28;20048;-29
2022/10/04 05:35:28;;;;;;;4.70;2.65;;;;;;;12.98;65.64;100289.00;5068900;28;20097;-29
2022/10/04 05:38:32;;;;;;;4.80;2.58;;;;;;;13.25;65.56;100292.88;5087471;28;20056;-29
2022/10/04 05:41:14;;;;;;;4.60;3.20;;;;;;;13.32;65.66;100294.66;5057112;28;20036;-26
2022/10/04 05:43:45;;;;;;;4.07;2.70;;;;;;;13.41;63.75;100269.19;5085843;28;20024;-27
2022/10/04 05:46:43;;;;;;;4.95;3.53;;;;;;;13.57;63.09;100306.00;5068854;28;20034;-27
2022/10/04 05:49:13;;;;;;;;;;;;;;;13.55;63.51;100301.94;5053206;28;20123;-30
2022/10/04 05:52:01;;;;;;;4.70;2.55;;;;;;;13.77;63.16;100297.63;5087232;28;19944;-28
2022/10/04 05:54:30;;;;;;;2.80;2.15;;;;;;;13.72;62.32;100297.50;5087404;28;20024;-27
2022/10/04 05:57:14;;;;;;;11.10;2.33;;;;;;;13.80;61.67;100301.69;5087213;28;20096;-28
2022/10/04 05:59:42;;;;;;;5.35;2.78;;;;;;;13.72;62.13;100321.63;5087209;28;20081;-28
2022/10/04 06:02:19;;;;;;;;;;;;;;;13.92;62.21;100325.81;5087783;28;20032;-29
2022/10/04 06:04:51;;;;;;;4.45;2.28;;;;;;;14.10;60.89;100331.03;5087261;28;19951;-29
2022/10/04 06:07:30;;;;;;;4.57;2.33;;;;;;;14.30;60.42;100330.63;5087178;28;20028;-30
2022/10/04 06:10:17;;;;;;;3.03;2.15;;;;;;;14.55;59.93;100348.31;5087031;28;20046;-28
2022/10/04 06:13:14;;;;;;;3.88;2.20;;;;;;;14.77;59.23;100349.31;5087062;28;20070;-27
2022/10/04 06:16:03;;;;;;;4.18;2.38;;;;;;;14.78;59.34;100356.31;5078036;28;20784;-29
2022/10/04 06:18:31;;;;;;;3.05;2.25;;;;;;;15.08;58.58;100349.88;5086963;28;20119;-28
2022/10/04 06:21:05;;;;;;;;;;;;;;;15.14;57.87;100365.03;5087444;28;20055;-27
2022/10/04 06:23:35;;;;;;;4.18;2.13;;;;;;;15.36;58.61;100365.13;5087009;28;20778;-30
2022/10/04 06:26:11;;;;;;;7.03;3.35;;;;;;;15.26;58.75;100352.34;5086917;28;20031;-28
2022/10/04 06:28:47;;;;;;;3.67;1.98;;;;;;;15.33;58.12;100364.81;5068491;28;20020;-28
2022/10/04 06:31:23;;;;;;;4.63;2.35;;;;;;;15.56;57.44;100367.34;5068774;28;20035;-31
2022/10/04 06:33:48;;;;;;;2.78;1.90;;;;;;;15.56;56.02;100367.34;5086037;28;20042;-28
2022/10/04 06:36:25;;;;;;;5.53;2.40;;;;;;;15.26;55.68;100357.72;5086230;28;20044;-29
2022/10/04 06:39:06;;;;;;;3.55;2.10;;;;;;;15.19;56.59;100365.09;5086702;28;20059;-30
2022/10/04 06:41:37;;;;;;;2.47;1.77;;;;;;;15.49;56.47;100361.31;5086516;28;20043;-28
2022/10/04 06:44:12;;;;;;;3.10;2.05;;;;;;;15.65;56.16;100343.53;5086692;28;20047;-27
2022/10/04 06:46:53;;;;;;;5.47;2.08;;;;;;;15.83;55.18;100358.63;5086746;28;20027;-27
2022/10/04 06:49:27;;;;;;;2.63;1.63;;;;;;;15.82;54.61;100359.72;5085456;28;20074;-28
2022/10/04 06:52:08;;;;;;;4.35;1.70;;;;;;;15.75;55.31;100362.56;5085072;28;20036;-28
2022/10/04 06:54:45;;;;;;;3.97;1.75;;;;;;;15.86;54.75;100366.22;5086474;28;20042;-28
2022/10/04 06:57:34;;;;;;;6.90;2.05;;;;;;;15.64;55.27;100350.78;5085031;28;20736;-31
2022/10/04 07:00:08;;;;;;;4.47;1.80;;;;;;;15.77;53.90;100340.78;5086750;28;20060;-27
2022/10/04 07:03:13;;;;;;;2.40;1.45;;;;;;;15.91;53.41;100377.03;5084913;28;20471;-28
2022/10/04 07:05:51;;;;;;;2.13;1.48;;;;;;;16.23;54.57;100376.44;5086127;28;20039;-28
2022/10/04 07:08:49;;;;;;;4.43;1.70;;;;;;;16.34;53.10;100372.78;5086775;28;20062;-29
2022/10/04 07:11:19;;;;;;;6.18;1.90;;;;;;;16.37;52.49;100380.38;5086407;28;20115;-26
2022/10/04 07:14:10;;;;;;;4.03;1.60;;;;;;;16.09;52.71;100370.56;5086123;28;20051;-28
2022/10/04 07:16:47;;;;;;;3.15;1.60;;;;;;;16.13;53.12;100370.91;5086590;28;20044;-28
2022/10/04 07:19:18;;;;;;;4.88;1.90;;;;;;;15.97;53.59;100373.38;5086338;28;20034;-28
2022/10/04 07:21:57;;;;;;;4.03;1.83;;;;;;;16.01;53.52;100382.56;5086428;28;20024;-26
2022/10/04 07:24:38;;;;;;;11.02;6.15;;;;;;;15.96;53.00;100361.00;5086594;28;20089;-28
2022/10/04 07:27:09;;;;;;;5.30;1.90;;;;;;;16.00;53.08;100367.50;5086226;28;20034;-26
2022/10/04 07:29:40;;;;;;;2.75;1.73;;;;;;;16.15;53.31;100379.53;5085808;28;20035;-28
2022/10/04 07:32:05;;;;;;;2.58;1.30;;;;;;;16.23;52.63;100382.63;5067772;28;20384;-29
2022/10/04 07:35:09;;;;;;;4.43;1.48;;;;;;;16.49;53.69;100358.72;5086360;28;20118;-27
2022/10/04 07:37:56;;;;;;;3.53;1.50;;;;;;;16.98;51.50;100387.56;5086658;28;20105;-30
2022/10/04 07:40:28;;;;;;;3.15;1.60;;;;;;;17.03;50.87;100391.13;5089866;28;20510;-27
2022/10/04 07:42:59;;;;;;;2.60;1.33;;;;;;;17.09;50.48;100389.31;5089494;28;20655;-27
2022/10/04 07:45:28;;;;;;;1.67;1.30;;;;;;;17.23;51.16;100389.72;5089970;28;20028;-28
2022/10/04 07:48:14;;;;;;;3.72;1.42;;;;;;;17.44;49.83;100396.91;5089948;28;20025;-27
2022/10/04 07:51:21;;;;;;;2.10;1.42;;;;;;;17.27;49.64;100391.63;5088331;28;20115;-29
2022/10/04 07:53:59;;;;;;;1.77;1.10;;;;;;;17.31;49.21;100381.16;5089154;28;20043;-28
2022/10/04 07:56:49;;;;;;;4.45;1.33;;;;;;;17.31;48.93;100386.56;5088130;28;20089;-27
2022/10/04 07:59:47;;;;;;;3.38;1.48;;;;;;;17.73;49.48;100387.69;5089475;28;20028;-29
2022/10/04 08:02:19;;;;;;;3.13;1.40;;;;;;;18.10;47.78;100395.00;5089622;28;20025;-31
2022/10/04 08:05:18;;;;;;;3.53;1.20;;;;;;;18.07;47.65;100391.75;5089538;28;20177;-29
2022/10/04 08:08:12;;;;;;;1.60;1.10;;;;;;;18.12;47.47;100382.06;5088918;28;20016;-32
2022/10/04 08:11:00;;;;;;;5.10;1.40;;;;;;;18.00;46.63;100384.94;5089582;28;20032;-28
2022/10/04 08:13:37;;;;;;;2.40;1.13;;;;;;;18.17;46.88;100382.91;5087782;28;20475;-29
2022/10/04 08:16:20;;;;;;;2.75;1.45;;;;;;;18.48;46.39;100383.06;5070894;28;20123;-30
2022/10/04 08:19:27;;;;;;;3.20;1.17;;;;;;;18.52;46.22;100394.16;5071316;28;20530;-27
2022/10/04 08:22:04;;;;;;;2.25;1.13;;;;;;;18.57;45.43;100381.47;5088318;28;20048;-29
2022/10/04 08:24:48;;;;;;;3.63;1.30;;;;;;;18.72;45.66;100386.13;5070862;28;20054;-29
2022/10/04 08:27:19;;;;;;;5.90;1.48;;;;;;;18.43;45.90;100391.94;5089201;28;20032;-28
2022/10/04 08:29:50;;;;;;;3.28;1.58;;;;;;;18.66;46.20;100392.59;5089051;28;20088;-31
2022/10/04 08:32:47;;;;;;;2.13;1.02;;;;;;;18.76;45.16;100389.13;5088957;28;20036;-29
2022/10/04 08:35:33;;;;;;;1.73;1.17;;;;;;;18.93;44.57;100386.22;5087411;28;20035;-28
2022/10/04 08:38:07;;;;;;;1.85;1.30;;;;;;;19.15;42.79;100400.31;5088826;28;20056;-32
2022/10/04 08:40:47;;;;;;;2.88;1.30;;;;;;;19.34;43.70;100394.38;5089110;28;20054;-27
2022/10/04 08:43:34;;;;;;;6.38;1.38;;;;;;;19.30;43.21;100398.72;5088488;28;20039;-28
2022/10/04 08:46:25;;;;;;;1.13;1.00;;;;;;;19.53;42.02;100402.78;5088725;28;20035;-28
2022/10/04 08:49:08;;;;;;;1.60;1.00;;;;;;;19.85;40.94;100399.81;5088329;28;20052;-27
2022/10/04 08:52:10;;;;;;;2.40;0.90;;;;;;;19.49;41.57;100391.69;5086624;28;20054;-32
2022/10/04 08:54:42;;;;;;;2.28;0.80;;;;;;;19.91;38.97;100401.44;5068888;28;20047;-30
2022/10/04 08:57:10;;;;;;;2.35;0.77;;;;;;;19.66;38.53;100405.75;5088399;28;20035;-30
2022/10/04 09:00:06;;;;;;;1.85;0.73;;;;;;;20.29;39.15;100401.91;5088416;28;20028;-27
2022/10/04 09:02:35;;;;;;;0.67;0.60;;;;;;;20.43;38.62;100402.94;5088650;28;20024;-28
2022/10/04 09:05:03;;;;;;;2.58;0.88;;;;;;;20.07;38.04;100400.31;5088511;28;20028;-28
2022/10/04 09:07:43;;;;;;;1.60;0.77;;;;;;;20.06;37.35;100412.25;5088255;28;20024;-29
2022/10/04 09:10:30;;;;;;;2.70;0.90;;;;;;;20.34;37.61;100379.41;5088248;28;20036;-28
2022/10/04 09:13:35;;;;;;;1.50;0.80;;;;;;;20.42;37.63;100409.44;5086743;28;20024;-28
2022/10/04 09:16:37;;;;;;;2.97;0.88;;;;;;;20.19;37.61;100404.66;5088124;28;20034;-32
2022/10/04 09:19:37;;;;;;;2.67;0.70;;;;;;;20.72;36.45;100402.31;5069711;28;20027;-27
2022/10/04 09:22:45;;;;;;;2.55;0.73;;;;;;;20.75;36.80;100401.75;5069753;28;20028;-30
2022/10/04 09:25:23;;;;;;;1.08;0.70;;;;;;;20.69;36.19;100408.28;5069707;28;20032;-27
2022/10/04 09:27:53;;;;;;;3.13;0.70;;;;;;;20.54;35.31;100408.34;5087752;28;20031;-31
2022/10/04 09:30:46;;;;;;;1.52;0.63;;;;;;;20.15;37.72;100414.41;5069499;28;20028;-29
2022/10/04 09:33:24;;;;;;;1.23;0.70;;;;;;;20.48;36.96;100415.66;5087093;28;20051;-27
2022/10/04 09:36:02;;;;;;;1.88;0.68;;;;;;;20.50;35.75;100418.91;5085799;28;20042;-28
2022/10/04 09:38:39;;;;;;;1.33;0.98;;;;;;;20.77;35.72;100404.19;5087631;28;20096;-27
2022/10/04 09:41:10;;;;;;;0.70;0.70;;;;;;;21.14;34.97;100403.69;5087916;28;20776;-28
2022/10/04 09:43:48;;;;;;;2.22;0.70;;;;;;;21.07;36.27;100403.22;5085856;28;20039;-27
2022/10/04 09:46:32;;;;;;;1.10;0.65;;;;;;;21.64;36.39;100401.75;5087919;28;20035;-30
2022/10/04 09:49:18;;;;;;;2.35;0.65;;;;;;;21.47;34.33;100406.75;5087557;28;20028;-30
2022/10/04 09:52:25;;;;;;;2.47;0.60;;;;;;;21.12;34.76;100396.94;5085964;28;20047;-28
2022/10/04 09:55:06;;;;;;;1.55;0.70;;;;;;;21.27;35.00;100386.81;5057140;28;20036;-28
2022/10/04 09:58:04;;;;;;;4.65;0.60;;;;;;;21.83;33.79;100399.13;5087523;28;20032;-28
2022/10/04 10:00:54;;;;;;;2.00;0.68;;;;;;;22.10;33.20;100396.97;5086855;28;20035;-29
2022/10/04 10:03:28;;;;;;;4.68;0.70;;;;;;;21.70;33.13;100409.81;5087283;28;20552;-28
2022/10/04 10:06:03;;;;;;;2.25;0.60;;;;;;;21.32;34.41;100406.84;5086942;28;20498;-28
2022/10/04 10:08:43;;;;;;;1.73;1.00;;;;;;;20.97;34.65;100403.28;5087077;28;20047;-30
2022/10/04 10:14:38;;;;;;;0.80;0.50;;;;;;;20.98;34.51;100394.84;5087557;28;20047;-27
2022/10/04 10:17:36;;;;;;;1.90;0.90;;;;;;;21.25;35.50;100394.41;5085599;28;20024;-27
2022/10/04 10:20:15;;;;;;;;;;;;;;;20.82;33.36;100404.16;5086371;28;20044;-31
2022/10/04 10:23:02;;;;;;;1.67;0.55;;;;;;;21.03;33.91;100394.03;5086924;28;19916;-27
2022/10/04 10:25:43;;;;;;;1.00;0.40;;;;;;;20.56;35.02;100411.56;5085454;28;20020;-30
2022/10/04 10:28:27;;;;;;;1.30;0.57;;;;;;;20.36;34.07;100413.25;5087227;28;20032;-28
2022/10/04 10:30:56;;;;;;;1.27;0.60;;;;;;;20.16;35.14;100419.53;5087052;28;20404;-29
2022/10/04 10:33:24;;;;;;;1.50;0.50;;;;;;;20.25;35.76;100403.56;5087129;28;20063;-31
2022/10/04 10:36:01;;;;;;;2.75;0.70;;;;;;;20.51;35.01;100419.69;5086161;28;20036;-29
2022/10/04 10:38:38;;;;;;;1.67;0.60;;;;;;;20.15;35.59;100403.56;5086998;28;20097;-29
2022/10/04 10:41:18;;;;;;;0.57;0.57;;;;;;;19.97;36.03;100410.38;5085436;28;20490;-29
2022/10/04 10:44:02;;;;;;;3.58;0.90;;;;;;;19.94;36.60;100405.47;5086634;28;20063;-28
2022/10/04 10:47:00;;;;;;;0.82;0.70;;;;;;;19.87;36.73;100403.88;5087126;28;20169;-30
2022/10/04 10:49:31;;;;;;;1.63;0.70;;;;;;;19.98;36.11;100410.09;5031392;28;20037;-30
2022/10/04 10:51:56;;;;;;;1.33;0.80;;;;;;;19.89;37.26;100406.31;5087048;28;20028;-32
2022/10/04 10:54:31;;;;;;;2.00;0.77;;;;;;;19.93;36.49;100412.81;5086599;28;20028;-31
2022/10/04 10:57:16;;;;;;;1.73;0.73;;;;;;;19.66;36.79;100403.06;5085243;28;20119;-30
2022/10/04 11:00:16;;;;;;;1.52;0.70;;;;;;;19.93;36.37;100412.81;5086445;28;20020;-31
2022/10/04 11:03:11;;;;;;;1.23;0.70;;;;;;;20.86;35.75;100402.50;5086534;28;20418;-32
2022/10/04 11:06:22;;;;;;;2.38;0.70;;;;;;;21.72;34.30;100403.03;5086577;28;20463;-29
2022/10/04 11:09:26;;;;;;;1.23;0.70;;;;;;;21.48;33.89;100402.16;5023135;28;20203;-28
2022/10/04 11:12:00;;;;;;;1.83;0.80;;;;;;;21.61;32.77;100396.88;4965756;28;20039;-28
2022/10/04 11:14:51;;;;;;;1.63;0.90;;;;;;;22.08;32.12;100383.66;5000612;28;20042;-31
2022/10/04 11:17:33;;;;;;;2.53;0.70;;;;;;;21.54;32.57;100396.41;5064963;28;20101;-32
2022/10/04 11:20:17;;;;;;;2.17;0.60;;;;;;;22.04;32.22;100405.16;5090269;28;20100;-30
2022/10/04 11:23:04;;;;;;;2.15;0.80;;;;;;;22.56;31.27;100404.63;5090373;28;20027;-29
2022/10/04 11:25:51;;;;;;;0.70;0.57;;;;;;;22.74;30.67;100403.84;5088708;28;20024;-27
2022/10/04 11:28:45;;;;;;;0.70;0.60;;;;;;;22.92;30.84;100394.06;5089672;28;20806;-32
2022/10/04 11:31:30;;;;;;;1.48;0.82;;;;;;;22.18;31.56;100415.34;5090302;28;20107;-28
2022/10/04 11:34:01;;;;;;;5.15;0.80;;;;;;;22.05;30.89;100401.34;5089097;28;20093;-29
2022/10/04 11:36:49;;;;;;;1.88;0.70;;;;;;;21.95;32.78;100415.03;5088387;28;20059;-29
2022/10/04 11:39:20;;;;;;;;;;;;;;;22.10;32.27;100413.25;5090403;28;20036;-27
2022/10/04 11:41:55;;;;;;;1.98;0.70;;;;;;;22.64;30.48;100423.03;5071145;28;19912;-27
2022/10/04 11:44:28;;;;;;;2.15;0.60;;;;;;;22.60;30.37;100422.78;5089878;28;20047;-32
2022/10/04 11:47:35;;;;;;;1.60;0.63;;;;;;;22.51;30.80;100427.22;5088687;28;20036;-29
2022/10/04 11:50:28;;;;;;;0.50;0.50;;;;;;;21.84;32.30;100418.94;5027221;28;20060;-33
2022/10/04 11:52:56;;;;;;;3.25;0.65;;;;;;;21.14;32.81;100422.69;5026804;28;20041;-31
2022/10/04 11:56:03;;;;;;;1.67;0.73;;;;;;;20.86;33.96;100419.59;5068260;28;20040;-28
2022/10/04 11:58:40;;;;;;;2.88;0.90;;;;;;;20.94;34.24;100420.09;5089804;28;20056;-32
2022/10/04 12:01:18;;;;;;;0.80;0.80;;;;;;;21.32;34.20;100420.41;5071311;28;20441;-28
2022/10/04 12:03:52;;;;;;;1.23;0.82;;;;;;;21.23;33.67;100415.59;5088167;28;20568;-28
2022/10/04 12:06:33;;;;;;;4.30;1.10;;;;;;;21.66;33.38;100402.25;5089420;28;20032;-29
2022/10/04 12:09:10;;;;;;;1.48;1.05;;;;;;;22.24;32.17;100422.38;5089446;28;20032;-28
2022/10/04 12:14:55;;;;;;;2.00;0.93;;;;;;;22.14;32.81;100433.31;5089315;28;20039;-27
2022/10/04 12:17:39;;;;;;;1.27;0.95;;;;;;;21.82;31.74;100434.69;5089169;28;20070;-29
2022/10/04 12:20:37;;;;;;;3.10;1.00;;;;;;;22.20;32.29;100434.88;5089054;28;20051;-27
2022/10/04 12:23:29;;;;;;;2.30;0.70;;;;;;;22.07;32.45;100426.31;5088605;28;20129;-29
2022/10/04 12:26:31;;;;;;;0.70;0.60;;;;;;;21.72;32.24;100426.63;5088634;28;20413;-27
2022/10/04 12:29:27;;;;;;;1.90;0.90;;;;;;;22.75;31.55;100412.81;5088758;28;20020;-32